Airfield :
LOGIN :

Register | Disclaimer

   EN    FR    IT 

 










Legend :    VFR   Marginal VFR   IFR   Intensive IFR   Very Intensive IFR
Visi :
Ceiling :
>= 8 km
>= 3000ft
5 to 8 km
1000 to 3000 ft
1500m to 5 km
500 to 1000 ft
800 to 1500m
200 to 500 ft
< 800m
< 200 ft
Symbols :   Thunderstorms  Fog  Heavy snow  Heavy precipitations  Wind > 20 kt
SIGMETs :     Misc.  Thunderstorms  Icing  Turbulence  Mountain Waves  Volcanic Ashes






- Airport Elevation : 16 ft
- IATA code : SDR


LEXJ - Santander Cantabria

CURRENT METAR :
  • 270500Z 20017G30KT 160V240 9999 BKN080 14/06 Q1015

EXPIRED METARs :
  • 270430Z 20016G27KT 160V300 CAVOK 14/06 Q1015
  • 270400Z AUTO 20014KT 170V250 CAVOK 14/06 Q1016
  • 270330Z AUTO 21014G26KT 170V260 CAVOK 14/05 Q1016
  • 270300Z AUTO 20015G25KT 170V260 CAVOK 14/05 Q1016
  • 270230Z AUTO 21012KT 170V250 CAVOK 14/05 Q1016

TAF TAF LEXJ
Valid from the 27 at 03:00 until the 28 at 03:00 UTC


270200Z 2703/2803 20012KT CAVOK TX13/2711Z TN11/2703Z
TEMPO 2703/2711 24016G28KT
PROB30
TEMPO 2707/2709 RA
BECMG 2711/2713 32009KT
PROB30
TEMPO 2712/2715 4000 RA BKN014



MET'MAP, your aeronautical weather chart ! - Copyright ORBIFLY December 2007 - Disclaimer

ORBIFLY MET'MAP TEAM :

Programming & Development : Alexandra Zaïnal
Concept & original design : Baudouin d'Aumeries
Assistance for programming : Marc-Olivier Méhu
Technical & hardware support : Manuel Goepfert

Contact : metmap@orbifly.com




SOURCES & CREDITS :

   NOAA